Time;durP1;ratioP1;P1;durP2;ratioP2;P2;SDS_P1;SDS_P2;PMS_P1;PMS_P2;Temp;Humidity;BMP_temperature;BMP_pressure;BME280_temperature;BME280_humidity;BME280_pressure;Samples;Min_cycle;Max_cycle;Signal;HPM_P1;HPM_P2
2022/01/20 00:00:32;;;;;;;12.68;2.20;;;4.60;99.90;;;;;;5068199;28;20052;-66
2022/01/20 00:03:01;;;;;;;11.45;2.55;;;4.60;99.90;;;;;;5055595;28;20072;-67
2022/01/20 00:08:30;;;;;;;14.48;2.53;;;4.70;99.90;;;;;;5050403;28;20076;-66
2022/01/20 00:27:23;;;;;;;10.18;2.38;;;4.70;99.90;;;;;;5057192;28;20501;-67
2022/01/20 00:32:17;;;;;;;12.40;2.25;;;4.80;99.90;;;;;;5044588;28;20045;-66
2022/01/20 00:35:14;;;;;;;13.68;2.75;;;4.70;99.90;;;;;;5059825;28;20101;-66
2022/01/20 00:37:30;;;;;;;13.77;2.90;;;4.70;99.90;;;;;;5055181;28;20056;-66
2022/01/20 00:39:57;;;;;;;14.88;2.50;;;4.70;99.90;;;;;;5051670;28;20045;-66
2022/01/20 00:42:24;;;;;;;14.70;2.58;;;4.70;99.90;;;;;;5061551;28;20037;-66
2022/01/20 00:44:50;;;;;;;15.30;2.75;;;4.70;99.90;;;;;;5047880;28;20453;-66
2022/01/20 00:47:18;;;;;;;15.00;2.42;;;4.70;99.90;;;;;;5069755;28;20047;-67
2022/01/20 00:49:44;;;;;;;14.48;2.80;;;4.70;99.90;;;;;;5058728;28;20048;-67
2022/01/20 00:52:11;;;;;;;16.48;2.60;;;4.70;99.90;;;;;;5047336;28;20072;-66
2022/01/20 00:54:36;;;;;;;15.13;2.42;;;4.60;99.90;;;;;;5060629;28;20056;-67
2022/01/20 00:57:03;;;;;;;16.92;2.95;;;4.60;99.90;;;;;;5065574;28;20090;-67
2022/01/20 00:59:31;;;;;;;16.55;3.15;;;4.70;99.90;;;;;;5052418;28;20080;-67
2022/01/20 01:02:06;;;;;;;16.73;2.80;;;4.60;99.90;;;;;;5051021;28;20045;-67
2022/01/20 01:04:32;;;;;;;19.23;2.78;;;4.60;99.90;;;;;;5061627;28;20115;-66
2022/01/20 01:09:42;;;;;;;10.65;2.10;;;4.90;99.90;;;;;;5051158;28;20090;-66
2022/01/20 01:12:13;;;;;;;12.60;2.50;;;5.10;99.90;;;;;;5050161;28;20430;-66
2022/01/20 01:14:44;;;;;;;8.98;2.03;;;5.00;99.90;;;;;;5065266;28;20041;-66
2022/01/20 01:22:33;;;;;;;11.20;2.10;;;4.80;99.90;;;;;;5052556;28;20045;-66
2022/01/20 01:25:01;;;;;;;3.42;1.05;;;4.80;99.90;;;;;;5066280;28;20064;-67
2022/01/20 01:27:29;;;;;;;5.60;1.30;;;4.80;99.90;;;;;;5053711;28;20497;-66
2022/01/20 01:32:26;;;;;;;7.60;1.40;;;5.50;99.90;;;;;;5067196;28;20058;-66
2022/01/20 01:34:53;;;;;;;8.02;1.80;;;4.60;99.90;;;;;;5065775;28;20372;-66
2022/01/20 01:40:03;;;;;;;5.78;1.50;;;4.50;99.90;;;;;;5065159;28;20048;-66
2022/01/20 01:42:36;;;;;;;8.98;1.63;;;4.60;99.90;;;;;;5067369;28;20090;-66
2022/01/20 01:45:10;;;;;;;9.60;1.92;;;4.50;99.90;;;;;;5059500;28;20045;-66
2022/01/20 01:47:36;;;;;;;7.45;1.80;;;4.50;99.90;;;;;;5068209;28;20050;-66
2022/01/20 01:50:03;;;;;;;10.48;2.03;;;4.50;99.90;;;;;;5068755;28;20036;-66
2022/01/20 01:52:29;;;;;;;11.90;2.00;;;4.60;99.90;;;;;;5066685;28;20488;-67
2022/01/20 01:54:55;;;;;;;9.88;1.90;;;4.60;99.90;;;;;;5067239;28;20037;-66
2022/01/20 01:57:23;;;;;;;11.35;1.92;;;4.60;99.90;;;;;;5066596;28;20547;-66
2022/01/20 01:59:50;;;;;;;8.75;2.08;;;4.60;99.90;;;;;;5067457;28;20040;-66
2022/01/20 02:02:15;;;;;;;11.02;2.10;;;5.00;99.90;;;;;;5066891;28;20048;-66
2022/01/20 02:04:41;;;;;;;12.50;1.75;;;4.80;99.90;;;;;;5065033;28;20115;-66
2022/01/20 02:20:13;;;;;;;10.10;2.42;;;4.90;99.90;;;;;;5064991;28;20056;-66
2022/01/20 02:22:40;;;;;;;9.40;2.20;;;5.10;99.90;;;;;;5067398;28;20346;-66
2022/01/20 02:25:16;;;;;;;13.18;2.38;;;5.10;99.90;;;;;;5049188;28;20056;-66
2022/01/20 02:27:42;;;;;;;14.13;2.10;;;5.10;99.90;;;;;;5083545;28;20044;-66
2022/01/20 02:30:08;;;;;;;12.82;2.50;;;4.90;99.90;;;;;;5071089;28;20059;-66
2022/01/20 02:32:33;;;;;;;15.95;3.10;;;4.80;99.90;;;;;;5068816;28;20109;-66
2022/01/20 02:34:59;;;;;;;14.90;2.42;;;4.70;99.90;;;;;;5045927;28;20693;-66
2022/01/20 02:37:25;;;;;;;15.77;2.80;;;4.60;99.90;;;;;;5065648;28;20113;-66
2022/01/20 02:40:29;;;;;;;13.45;2.65;;;4.50;99.90;;;;;;5073622;28;20048;-66
2022/01/20 02:45:32;;;;;;;13.98;2.90;;;4.50;99.90;;;;;;5055316;28;20358;-66
2022/01/20 02:47:57;;;;;;;14.57;2.83;;;4.50;99.90;;;;;;5069497;28;20054;-66
2022/01/20 02:50:23;;;;;;;18.10;2.97;;;4.50;99.90;;;;;;5055704;28;20044;-66
2022/01/20 02:52:49;;;;;;;18.77;3.35;;;4.50;99.90;;;;;;5072711;28;20045;-66
2022/01/20 02:55:15;;;;;;;16.83;3.20;;;4.60;99.90;;;;;;5070990;28;20052;-66
2022/01/20 02:57:40;;;;;;;17.85;3.28;;;4.60;99.90;;;;;;5069510;28;20049;-67
2022/01/20 03:00:07;;;;;;;19.58;4.15;;;4.70;99.90;;;;;;5070232;28;20084;-66
2022/01/20 03:02:33;;;;;;;19.38;3.50;;;4.80;99.90;;;;;;5071493;28;20056;-66
2022/01/20 03:04:59;;;;;;;24.80;4.00;;;4.80;99.90;;;;;;5070352;28;20040;-67
2022/01/20 03:07:25;;;;;;;14.23;2.97;;;4.90;99.90;;;;;;5067679;28;20513;-66
2022/01/20 03:09:50;;;;;;;18.83;3.40;;;4.90;99.90;;;;;;5055491;28;20041;-66
2022/01/20 03:12:16;;;;;;;18.63;3.47;;;4.80;99.90;;;;;;5064019;28;20048;-67
2022/01/20 03:14:42;;;;;;;17.27;3.20;;;4.90;99.90;;;;;;5050172;28;20052;-66
2022/01/20 03:17:07;;;;;;;18.17;3.00;;;4.80;99.90;;;;;;5039472;28;20106;-67
2022/01/20 03:19:33;;;;;;;16.55;3.00;;;4.70;99.90;;;;;;5049617;28;20048;-66
2022/01/20 03:21:59;;;;;;;23.73;3.90;;;4.70;99.90;;;;;;5066491;28;20044;-66
2022/01/20 03:24:25;;;;;;;24.65;3.95;;;4.70;99.90;;;;;;5059044;28;20041;-66
2022/01/20 03:26:51;;;;;;;20.58;3.95;;;4.70;99.90;;;;;;5061162;28;20048;-66
2022/01/20 03:29:16;;;;;;;27.13;4.10;;;4.60;99.90;;;;;;5056093;28;20079;-66
2022/01/20 03:31:42;;;;;;;25.20;4.10;;;4.50;99.90;;;;;;5070203;28;20036;-66
2022/01/20 03:34:08;;;;;;;20.48;4.47;;;4.50;99.90;;;;;;5067693;28;20131;-66
2022/01/20 03:36:34;;;;;;;16.00;3.00;;;4.60;99.90;;;;;;5083222;28;20052;-66
2022/01/20 03:39:00;;;;;;;13.57;2.80;;;4.60;99.90;;;;;;5068986;28;20268;-66
2022/01/20 03:41:26;;;;;;;20.80;3.22;;;4.70;99.90;;;;;;5067033;28;20125;-66
2022/01/20 03:43:51;;;;;;;13.02;2.05;;;4.70;99.90;;;;;;5063882;28;20485;-66
2022/01/20 03:46:17;;;;;;;13.68;2.50;;;4.80;99.90;;;;;;5068789;28;20033;-66
2022/01/20 03:48:52;;;;;;;9.38;2.10;;;4.80;99.90;;;;;;5069478;28;20495;-65
2022/01/20 03:51:21;;;;;;;12.75;2.85;;;4.80;99.90;;;;;;5063145;28;20040;-66
2022/01/20 03:53:49;;;;;;;16.17;2.60;;;4.70;99.90;;;;;;5069485;28;20074;-66
2022/01/20 03:56:16;;;;;;;12.55;2.65;;;4.70;99.90;;;;;;5048402;28;20110;-66
2022/01/20 03:58:42;;;;;;;13.00;2.80;;;4.60;99.90;;;;;;5060097;28;20051;-66
2022/01/20 04:01:07;;;;;;;11.82;3.25;;;4.50;99.90;;;;;;5055377;28;20036;-66
2022/01/20 04:03:33;;;;;;;9.50;2.55;;;4.50;99.90;;;;;;5058760;28;20049;-66
2022/01/20 04:06:00;;;;;;;10.85;2.85;;;4.40;99.90;;;;;;5065186;28;20044;-66
2022/01/20 04:08:33;;;;;;;11.32;2.28;;;4.30;99.90;;;;;;5066696;28;20067;-66
2022/01/20 04:11:07;;;;;;;10.15;2.30;;;4.30;99.90;;;;;;5051123;28;20509;-66
2022/01/20 04:13:33;;;;;;;9.55;2.38;;;4.30;99.90;;;;;;5069267;28;20426;-66
2022/01/20 04:16:11;;;;;;;11.48;2.70;;;4.40;99.90;;;;;;5067590;28;20126;-66
2022/01/20 04:18:37;;;;;;;12.05;2.70;;;4.40;99.90;;;;;;5067713;28;20396;-66
2022/01/20 04:21:03;;;;;;;12.63;2.92;;;4.40;99.90;;;;;;5058649;28;20032;-66
2022/01/20 04:23:30;;;;;;;11.23;2.35;;;4.40;99.90;;;;;;5069995;28;20123;-67
2022/01/20 04:25:56;;;;;;;9.93;2.80;;;4.40;99.90;;;;;;5065404;28;20056;-66
2022/01/20 04:28:22;;;;;;;9.80;2.33;;;4.30;99.90;;;;;;5054318;28;20471;-66
2022/01/20 04:30:48;;;;;;;14.55;2.50;;;4.40;99.90;;;;;;5066676;28;20041;-66
2022/01/20 04:33:14;;;;;;;10.13;2.65;;;4.50;99.90;;;;;;5064210;28;20060;-66
2022/01/20 04:35:39;;;;;;;12.52;2.30;;;4.40;99.90;;;;;;5045599;28;20043;-66
2022/01/20 04:38:06;;;;;;;10.18;2.55;;;4.60;99.90;;;;;;5065830;28;20043;-66
2022/01/20 04:40:38;;;;;;;18.27;3.20;;;4.60;99.90;;;;;;5069854;28;20044;-66
2022/01/20 04:43:03;;;;;;;12.50;2.53;;;4.60;99.90;;;;;;5068279;28;20071;-66
2022/01/20 04:45:34;;;;;;;12.07;2.45;;;4.60;99.90;;;;;;5067190;28;20044;-66
2022/01/20 04:58:38;;;;;;;16.67;2.75;;;4.20;99.90;;;;;;5053371;28;20400;-66
2022/01/20 05:01:03;;;;;;;15.70;3.15;;;4.10;99.90;;;;;;5061466;28;20033;-66
2022/01/20 05:03:29;;;;;;;8.18;2.10;;;4.00;99.90;;;;;;5058399;28;20127;-67
2022/01/20 05:05:55;;;;;;;14.13;2.45;;;4.00;99.90;;;;;;5067005;28;20511;-66
2022/01/20 05:08:23;;;;;;;7.95;2.13;;;4.00;99.90;;;;;;5067768;28;20050;-67
2022/01/20 05:10:50;;;;;;;7.65;1.75;;;4.10;99.90;;;;;;5045982;28;20049;-66
2022/01/20 05:13:24;;;;;;;11.43;1.70;;;4.10;99.90;;;;;;5065127;28;20076;-66
2022/01/20 05:15:50;;;;;;;5.85;1.45;;;4.00;99.90;;;;;;5059157;28;20505;-66
2022/01/20 05:18:16;;;;;;;5.60;1.45;;;3.80;99.90;;;;;;5051213;28;20434;-66
2022/01/20 05:20:42;;;;;;;7.60;1.90;;;3.80;99.90;;;;;;5054786;28;20068;-66
2022/01/20 05:23:07;;;;;;;6.57;1.80;;;3.70;99.90;;;;;;5065667;28;20086;-66
2022/01/20 05:25:33;;;;;;;8.32;1.67;;;3.80;99.90;;;;;;5062756;28;20036;-66
2022/01/20 05:27:58;;;;;;;11.52;1.80;;;3.60;99.90;;;;;;5066359;28;20795;-66
2022/01/20 05:30:24;;;;;;;9.68;2.10;;;3.50;99.90;;;;;;5066262;28;20044;-66
2022/01/20 05:32:50;;;;;;;10.98;2.17;;;3.40;99.90;;;;;;5064166;28;20044;-68
2022/01/20 05:35:15;;;;;;;12.45;2.13;;;3.40;99.90;;;;;;5068912;28;20119;-68
2022/01/20 05:37:41;;;;;;;10.27;2.38;;;3.30;99.90;;;;;;5066312;28;20051;-68
2022/01/20 05:40:07;;;;;;;9.85;1.95;;;3.40;99.90;;;;;;5065943;28;20549;-68
2022/01/20 05:42:36;;;;;;;12.05;2.78;;;3.30;99.90;;;;;;5058264;28;20338;-68
2022/01/20 05:45:02;;;;;;;22.27;2.95;;;3.30;99.90;;;;;;5055230;28;20119;-66
2022/01/20 05:47:30;;;;;;;23.00;3.60;;;3.30;99.90;;;;;;5063471;28;20048;-68
2022/01/20 05:49:56;;;;;;;13.38;3.45;;;3.30;99.90;;;;;;5051953;28;20040;-65
2022/01/20 05:52:22;;;;;;;16.52;2.95;;;3.20;99.90;;;;;;5068579;28;20484;-68
2022/01/20 05:54:47;;;;;;;10.52;2.20;;;3.30;99.90;;;;;;5068604;28;20041;-66
2022/01/20 05:57:13;;;;;;;20.83;3.70;;;3.30;99.90;;;;;;5056560;28;20067;-66
2022/01/20 05:59:39;;;;;;;13.10;2.78;;;3.30;99.90;;;;;;5055799;28;20060;-67
2022/01/20 06:02:13;;;;;;;15.57;3.08;;;3.40;99.90;;;;;;5048362;28;20140;-65
2022/01/20 06:04:39;;;;;;;16.23;3.55;;;3.40;99.90;;;;;;5038695;28;20044;-66
2022/01/20 06:07:04;;;;;;;17.90;2.92;;;3.50;99.90;;;;;;5071962;28;20519;-65
2022/01/20 06:09:30;;;;;;;16.25;3.58;;;3.50;99.90;;;;;;5055410;28;20493;-65
2022/01/20 06:11:55;;;;;;;13.65;3.00;;;3.60;99.90;;;;;;5034072;28;20045;-66
2022/01/20 06:14:23;;;;;;;11.32;2.40;;;3.60;99.90;;;;;;5064348;28;20048;-65
2022/01/20 06:16:49;;;;;;;12.48;3.08;;;3.70;99.90;;;;;;5053775;28;20098;-67
2022/01/20 06:19:15;;;;;;;17.05;3.47;;;3.70;99.90;;;;;;5051944;28;20041;-66
2022/01/20 06:21:41;;;;;;;18.10;4.07;;;3.80;99.90;;;;;;5060470;28;20081;-67
2022/01/20 06:24:07;;;;;;;18.15;3.80;;;3.90;99.90;;;;;;5068105;28;20713;-66
2022/01/20 06:26:33;;;;;;;17.67;3.20;;;3.80;99.90;;;;;;5053187;28;20382;-66
2022/01/20 06:28:59;;;;;;;13.60;2.85;;;3.90;99.90;;;;;;5060749;28;20045;-67
2022/01/20 06:31:24;;;;;;;17.00;3.15;;;3.90;99.90;;;;;;5060891;28;20485;-65
2022/01/20 06:33:50;;;;;;;13.80;2.50;;;4.00;99.90;;;;;;5049649;28;20052;-68
2022/01/20 06:36:15;;;;;;;12.73;2.67;;;4.00;99.90;;;;;;5062233;28;20084;-67
2022/01/20 06:38:42;;;;;;;11.68;2.13;;;3.90;99.90;;;;;;5053956;28;20084;-68
2022/01/20 06:41:08;;;;;;;16.70;3.05;;;3.70;99.90;;;;;;5060874;28;20106;-67
2022/01/20 06:43:34;;;;;;;15.20;3.25;;;3.50;99.90;;;;;;5068413;28;20036;-67
2022/01/20 06:45:59;;;;;;;13.90;2.80;;;3.40;99.90;;;;;;5037671;28;20051;-65
2022/01/20 06:48:25;;;;;;;13.85;2.90;;;3.30;99.90;;;;;;5047990;28;20116;-65
2022/01/20 06:50:51;;;;;;;9.85;2.92;;;3.20;99.90;;;;;;5050772;28;20098;-67
2022/01/20 06:53:16;;;;;;;10.00;2.53;;;3.10;99.90;;;;;;5042813;28;20071;-65
2022/01/20 06:55:42;;;;;;;10.98;2.75;;;3.00;99.90;;;;;;5069778;28;20417;-66
2022/01/20 06:58:07;;;;;;;14.70;2.60;;;3.00;99.90;;;;;;5068926;28;20041;-66
2022/01/20 07:00:33;;;;;;;16.60;2.60;;;3.00;99.90;;;;;;5067217;28;20037;-66
2022/01/20 07:02:59;;;;;;;15.50;2.85;;;2.90;99.90;;;;;;5067996;28;20040;-66
2022/01/20 07:05:24;;;;;;;22.15;3.10;;;2.90;99.90;;;;;;5079358;28;20361;-66
2022/01/20 07:07:50;;;;;;;14.30;3.22;;;2.80;99.90;;;;;;5067943;28;20072;-66
2022/01/20 07:10:18;;;;;;;12.65;2.47;;;2.90;99.90;;;;;;5057673;28;20498;-67
2022/01/20 07:12:44;;;;;;;22.25;3.33;;;2.90;99.90;;;;;;5067681;28;20048;-67
2022/01/20 07:15:10;;;;;;;21.00;3.42;;;2.90;99.90;;;;;;5065801;28;20372;-67
2022/01/20 07:17:36;;;;;;;11.35;2.55;;;3.00;99.90;;;;;;5049200;28;20485;-68
2022/01/20 07:20:02;;;;;;;11.68;2.28;;;3.70;99.90;;;;;;5052460;28;20037;-67
2022/01/20 07:22:28;;;;;;;13.93;2.90;;;3.30;99.90;;;;;;5067577;28;20492;-67
2022/01/20 07:24:54;;;;;;;8.00;2.00;;;3.30;99.90;;;;;;5068138;28;20120;-67
2022/01/20 07:27:19;;;;;;;8.05;2.72;;;3.40;99.90;;;;;;5068954;28;20460;-67
2022/01/20 07:29:45;;;;;;;8.80;2.22;;;3.40;99.90;;;;;;5067256;28;20036;-67
2022/01/20 07:32:11;;;;;;;8.60;2.30;;;3.40;99.90;;;;;;5068625;28;20040;-67
2022/01/20 07:34:36;;;;;;;16.40;3.40;;;3.30;99.90;;;;;;5048637;28;20482;-67
2022/01/20 07:37:03;;;;;;;12.57;2.50;;;4.20;99.90;;;;;;5051590;28;20036;-67
2022/01/20 07:39:28;;;;;;;10.95;2.60;;;3.20;99.90;;;;;;5051336;28;20048;-67
2022/01/20 07:41:54;;;;;;;9.57;2.22;;;3.10;99.90;;;;;;5047982;28;20037;-68
2022/01/20 07:44:20;;;;;;;7.75;1.83;;;3.10;99.90;;;;;;5050178;28;20127;-67
2022/01/20 07:46:47;;;;;;;14.52;3.60;;;3.20;99.90;;;;;;5051457;28;20079;-68
2022/01/20 07:49:14;;;;;;;11.45;2.50;;;3.30;99.90;;;;;;5072491;28;20053;-68
2022/01/20 07:51:39;;;;;;;8.43;2.13;;;3.40;99.90;;;;;;5064933;28;20101;-67
2022/01/20 07:54:05;;;;;;;11.07;2.53;;;3.50;99.90;;;;;;5048854;28;20076;-67
2022/01/20 07:56:31;;;;;;;8.52;1.90;;;3.30;99.90;;;;;;5048933;28;20045;-67
2022/01/20 07:58:57;;;;;;;9.73;2.45;;;3.20;99.90;;;;;;5050016;28;20099;-67
2022/01/20 08:01:24;;;;;;;17.48;2.60;;;3.00;99.90;;;;;;5053304;28;20037;-67
2022/01/20 08:03:52;;;;;;;11.88;2.17;;;2.90;99.90;;;;;;5046616;28;20092;-68
2022/01/20 08:06:18;;;;;;;9.68;2.10;;;2.80;99.90;;;;;;5038439;28;20375;-68
2022/01/20 08:08:45;;;;;;;14.02;2.60;;;2.80;99.90;;;;;;5031121;28;20045;-66
2022/01/20 08:11:11;;;;;;;17.38;2.78;;;2.90;99.90;;;;;;5055674;28;20036;-66
2022/01/20 08:13:37;;;;;;;13.43;2.92;;;2.80;99.90;;;;;;5060751;28;20114;-67
2022/01/20 08:16:02;;;;;;;16.52;3.58;;;2.90;99.90;;;;;;5060138;28;20029;-67
2022/01/20 08:18:28;;;;;;;14.60;3.42;;;2.90;99.90;;;;;;5068258;28;20089;-66
2022/01/20 08:20:54;;;;;;;18.27;3.80;;;2.90;99.90;;;;;;5082965;28;20160;-66
2022/01/20 08:23:19;;;;;;;19.75;3.42;;;3.00;99.90;;;;;;5068946;28;20123;-67
2022/01/20 08:25:45;;;;;;;14.30;2.95;;;3.10;99.90;;;;;;5065005;28;20048;-67
2022/01/20 08:28:12;;;;;;;15.02;2.60;;;3.20;99.90;;;;;;5056990;28;20485;-66
2022/01/20 08:30:38;;;;;;;18.23;2.65;;;3.40;99.90;;;;;;5046700;28;20049;-66
2022/01/20 08:33:03;;;;;;;8.68;2.55;;;3.50;99.90;;;;;;5051385;28;20045;-68
2022/01/20 08:35:32;;;;;;;11.95;2.70;;;3.60;99.90;;;;;;5048602;28;20162;-69
2022/01/20 08:37:59;;;;;;;13.57;2.53;;;3.60;99.90;;;;;;5047581;28;20049;-68
2022/01/20 08:40:24;;;;;;;10.77;2.45;;;3.70;99.90;;;;;;5047420;28;20424;-67
2022/01/20 08:42:52;;;;;;;10.43;2.40;;;5.10;99.90;;;;;;5049562;28;20060;-68
2022/01/20 08:45:21;;;;;;;8.65;1.95;;;4.20;99.90;;;;;;5049945;28;20347;-67
2022/01/20 08:47:49;;;;;;;11.35;2.30;;;4.50;99.90;;;;;;5055179;28;20044;-67
2022/01/20 08:50:15;;;;;;;4.43;1.95;;;4.60;99.90;;;;;;5054808;28;20052;-67
2022/01/20 08:52:41;;;;;;;10.98;2.60;;;4.50;99.90;;;;;;5067309;28;20416;-67
2022/01/20 08:55:07;;;;;;;12.63;2.20;;;4.20;99.90;;;;;;5065637;28;20191;-68
2022/01/20 08:57:33;;;;;;;5.45;2.05;;;3.90;99.90;;;;;;5064282;28;20506;-68
2022/01/20 08:59:58;;;;;;;8.70;1.63;;;3.70;99.90;;;;;;5056563;28;20124;-68
2022/01/20 09:02:24;;;;;;;5.68;1.77;;;3.70;99.90;;;;;;5061992;28;20072;-67
2022/01/20 09:04:51;;;;;;;6.65;1.88;;;5.40;99.90;;;;;;5048151;28;20053;-67
2022/01/20 09:07:18;;;;;;;9.80;2.05;;;3.80;99.90;;;;;;5074720;28;20052;-68
2022/01/20 09:09:46;;;;;;;9.63;2.10;;;4.40;99.90;;;;;;5051668;28;20120;-66
2022/01/20 09:15:27;;;;;;;9.40;2.20;;;3.90;99.90;;;;;;5064183;28;20471;-66
2022/01/20 09:15:27;;;;;;;9.98;1.92;;;2.90;99.90;;;;;;5064725;28;20059;-67
2022/01/20 09:17:59;;;;;;;7.47;1.60;;;4.50;99.90;;;;;;5065206;28;20044;-68
2022/01/20 09:20:24;;;;;;;7.15;2.38;;;4.60;99.90;;;;;;5067524;28;20036;-67
2022/01/20 09:22:51;;;;;;;8.68;2.03;;;4.40;99.90;;;;;;5067213;28;20068;-68
2022/01/20 09:25:18;;;;;;;10.02;2.10;;;4.20;99.90;;;;;;5067480;28;20485;-68
2022/01/20 09:27:43;;;;;;;10.15;2.20;;;5.00;99.90;;;;;;5064793;28;20143;-67
2022/01/20 09:30:10;;;;;;;10.25;1.95;;;4.00;99.90;;;;;;5067768;28;20111;-67
2022/01/20 09:32:39;;;;;;;9.95;1.88;;;4.10;99.90;;;;;;5066783;28;20086;-68
2022/01/20 09:35:06;;;;;;;14.73;2.75;;;4.60;99.90;;;;;;5039422;28;20041;-67
2022/01/20 09:37:32;;;;;;;9.32;2.50;;;5.50;99.90;;;;;;5028422;28;20132;-67
2022/01/20 09:39:57;;;;;;;8.02;2.38;;;6.50;99.90;;;;;;5031055;28;20175;-67
2022/01/20 09:42:24;;;;;;;9.18;2.20;;;7.40;99.90;;;;;;5033854;28;20481;-67
2022/01/20 09:44:52;;;;;;;11.60;2.70;;;8.30;99.90;;;;;;5047354;28;20063;-67
2022/01/20 09:47:18;;;;;;;15.60;2.60;;;8.80;99.90;;;;;;5030414;28;20478;-67
2022/01/20 09:49:44;;;;;;;16.15;3.00;;;8.80;99.90;;;;;;5029992;28;20113;-67
2022/01/20 09:52:10;;;;;;;12.80;2.83;;;9.10;99.90;;;;;;5032281;28;20214;-68
2022/01/20 09:54:36;;;;;;;19.13;3.30;;;9.50;99.90;;;;;;5031299;28;20410;-68
2022/01/20 09:57:02;;;;;;;12.05;2.40;;;9.20;99.90;;;;;;5029668;28;20405;-68
2022/01/20 09:59:30;;;;;;;12.60;2.97;;;8.80;99.90;;;;;;5042608;28;20079;-67
2022/01/20 10:01:58;;;;;;;12.88;2.72;;;8.30;99.90;;;;;;5056599;28;20077;-69
2022/01/20 10:04:32;;;;;;;15.52;4.32;;;8.00;99.90;;;;;;5030091;28;20049;-68
2022/01/20 10:07:04;;;;;;;15.15;3.45;;;8.10;99.90;;;;;;5045921;28;20076;-69
2022/01/20 10:09:39;;;;;;;11.52;2.45;;;8.60;99.90;;;;;;5050041;28;20469;-69
2022/01/20 10:12:07;;;;;;;14.27;2.67;;;9.50;99.90;;;;;;5049895;28;20084;-69
2022/01/20 10:14:43;;;;;;;11.82;3.33;;;8.80;99.90;;;;;;5053352;28;20048;-68
2022/01/20 10:17:16;;;;;;;9.00;2.38;;;8.50;99.90;;;;;;5052688;28;20528;-68
2022/01/20 10:19:42;;;;;;;11.60;2.78;;;8.30;99.90;;;;;;5049342;28;20128;-69
2022/01/20 10:22:12;;;;;;;7.78;2.30;;;8.30;99.90;;;;;;5052261;28;20464;-68
2022/01/20 10:24:37;;;;;;;11.02;2.92;;;8.40;99.90;;;;;;5034732;28;20095;-69
2022/01/20 10:27:09;;;;;;;11.80;2.63;;;7.60;99.90;;;;;;5030893;28;20045;-69
2022/01/20 10:29:35;;;;;;;13.43;3.20;;;7.30;99.90;;;;;;5031224;28;20042;-68
2022/01/20 10:32:00;;;;;;;11.63;2.50;;;8.30;99.90;;;;;;5032883;28;20453;-69
2022/01/20 10:34:37;;;;;;;11.55;3.58;;;7.90;99.90;;;;;;5030706;28;20037;-68
2022/01/20 10:37:09;;;;;;;13.80;2.90;;;7.90;99.90;;;;;;5029711;28;20128;-69
2022/01/20 10:39:37;;;;;;;12.10;3.15;;;7.80;99.90;;;;;;5030849;28;20041;-67
2022/01/20 10:42:08;;;;;;;13.57;2.50;;;7.90;99.90;;;;;;5029426;28;20050;-67
2022/01/20 10:44:54;;;;;;;11.80;2.50;;;8.00;99.90;;;;;;5029278;28;20061;-67
2022/01/20 10:47:23;;;;;;;11.63;3.47;;;8.50;99.90;;;;;;5029559;28;20510;-67
2022/01/20 10:49:49;;;;;;;9.95;2.20;;;8.70;99.90;;;;;;5029660;28;20045;-67
2022/01/20 10:52:23;;;;;;;10.88;2.10;;;8.60;99.90;;;;;;5030699;28;20048;-68
2022/01/20 10:54:51;;;;;;;11.45;2.30;;;8.30;99.90;;;;;;5030236;28;20047;-68
2022/01/20 10:57:25;;;;;;;10.18;2.50;;;8.10;99.90;;;;;;5030063;28;20094;-68
2022/01/20 10:59:56;;;;;;;9.57;2.80;;;8.40;99.90;;;;;;5044649;28;20080;-68
2022/01/20 11:02:29;;;;;;;9.32;2.40;;;8.70;99.90;;;;;;5051119;28;20045;-68
2022/01/20 11:04:56;;;;;;;13.30;2.72;;;9.20;99.90;;;;;;5047904;28;20077;-69
2022/01/20 11:07:23;;;;;;;12.50;2.58;;;10.20;99.90;;;;;;5049378;28;20049;-69
2022/01/20 11:09:59;;;;;;;12.68;2.70;;;10.90;99.90;;;;;;5050092;28;20072;-68
2022/01/20 11:12:25;;;;;;;14.05;2.65;;;10.70;99.90;;;;;;5049682;28;20076;-68
2022/01/20 11:14:52;;;;;;;14.38;2.67;;;10.10;99.90;;;;;;5045807;28;20048;-68
2022/01/20 11:17:23;;;;;;;14.65;2.95;;;9.50;99.90;;;;;;5049518;28;20041;-68
2022/01/20 11:19:50;;;;;;;13.57;2.80;;;8.90;99.90;;;;;;5049486;28;20551;-68
2022/01/20 11:22:18;;;;;;;11.43;3.22;;;8.40;99.90;;;;;;5050587;28;20052;-67
2022/01/20 11:24:44;;;;;;;11.90;3.55;;;8.00;99.90;;;;;;5048904;28;20037;-67
2022/01/20 11:27:12;;;;;;;16.00;3.40;;;7.90;99.90;;;;;;5049927;28;20513;-68
2022/01/20 11:29:40;;;;;;;10.35;2.60;;;8.50;99.90;;;;;;5047913;28;20099;-68
2022/01/20 11:32:22;;;;;;;12.15;3.00;;;9.90;99.90;;;;;;5049559;28;20045;-67
2022/01/20 11:35:06;;;;;;;15.70;2.80;;;11.70;99.90;;;;;;5048926;28;20052;-67
2022/01/20 11:37:39;;;;;;;16.77;3.00;;;12.50;99.90;;;;;;5048830;28;20468;-67
2022/01/20 11:40:11;;;;;;;11.15;2.90;;;11.90;99.90;;;;;;5047279;28;20100;-67
2022/01/20 11:42:37;;;;;;;14.45;3.53;;;10.60;99.90;;;;;;5051334;28;20174;-68
2022/01/20 11:45:32;;;;;;;14.57;3.03;;;9.30;99.90;;;;;;5048079;28;20063;-68
2022/01/20 11:48:09;;;;;;;18.63;3.05;;;8.50;99.90;;;;;;5047487;28;20156;-68
2022/01/20 11:50:35;;;;;;;13.55;3.17;;;8.60;99.90;;;;;;5048307;28;20098;-69
2022/01/20 11:53:12;;;;;;;15.77;2.88;;;7.70;99.90;;;;;;5048909;28;20099;-69
2022/01/20 11:55:48;;;;;;;11.45;3.00;;;7.50;99.90;;;;;;5049524;28;20394;-69
2022/01/20 11:58:15;;;;;;;;;;;8.00;99.90;;;;;;5047112;28;20268;-67
2022/01/20 12:00:41;;;;;;;15.82;3.53;;;9.50;99.90;;;;;;5047702;28;20292;-68
2022/01/20 12:03:14;;;;;;;11.98;2.50;;;12.00;99.90;;;;;;5046820;28;20111;-67
2022/01/20 12:05:40;;;;;;;10.07;2.20;;;12.00;99.90;;;;;;5048503;28;20049;-67
2022/01/20 12:08:11;;;;;;;12.63;2.72;;;11.60;99.90;;;;;;5051288;28;20151;-67
2022/01/20 12:10:39;;;;;;;11.43;2.97;;;10.60;99.90;;;;;;5045180;28;20052;-67
2022/01/20 12:13:06;;;;;;;14.70;3.10;;;9.70;99.90;;;;;;5055074;28;20052;-73
2022/01/20 12:15:32;;;;;;;9.93;3.20;;;9.00;99.90;;;;;;5068692;28;20074;-73
2022/01/20 12:17:58;;;;;;;12.02;2.92;;;8.60;99.90;;;;;;5066557;28;20041;-73
2022/01/20 12:20:25;;;;;;;11.75;2.38;;;8.30;99.90;;;;;;5065891;28;20117;-72
2022/01/20 12:22:52;;;;;;;9.52;2.78;;;8.70;99.90;;;;;;5058895;28;20045;-73
2022/01/20 12:25:28;;;;;;;13.80;2.60;;;9.40;99.90;;;;;;5024343;28;20049;-73
2022/01/20 12:28:13;;;;;;;14.85;2.65;;;10.20;99.90;;;;;;5024059;28;20045;-73
2022/01/20 12:30:47;;;;;;;13.20;2.63;;;10.40;99.90;;;;;;5047425;28;20063;-68
2022/01/20 12:33:15;;;;;;;12.70;2.67;;;10.50;99.90;;;;;;5063312;28;20510;-67
2022/01/20 12:35:49;;;;;;;15.50;3.00;;;9.30;99.90;;;;;;5055167;28;20418;-67
2022/01/20 12:38:18;;;;;;;11.95;2.90;;;9.00;99.90;;;;;;5067142;28;20143;-67
2022/01/20 12:40:48;;;;;;;19.65;3.55;;;8.90;99.90;;;;;;5061277;28;20044;-67
2022/01/20 12:43:14;;;;;;;18.10;2.78;;;9.40;99.90;;;;;;5032891;28;20157;-67
2022/01/20 12:45:56;;;;;;;17.00;3.28;;;10.30;99.90;;;;;;5064565;28;20094;-67
2022/01/20 12:48:22;;;;;;;11.20;2.40;;;11.30;99.90;;;;;;5050493;28;20109;-67
2022/01/20 12:51:03;;;;;;;12.40;3.03;;;12.30;99.50;;;;;;5062959;28;20467;-69
2022/01/20 12:53:31;;;;;;;13.60;3.15;;;12.80;99.40;;;;;;5048037;28;20112;-69
2022/01/20 12:55:57;;;;;;;10.57;2.78;;;13.60;97.60;;;;;;5044810;28;20482;-68
2022/01/20 12:58:23;;;;;;;15.63;3.40;;;13.90;96.10;;;;;;5045886;28;20539;-66
2022/01/20 13:01:03;;;;;;;14.15;3.35;;;13.20;96.50;;;;;;5048448;28;20037;-68
2022/01/20 13:03:40;;;;;;;12.70;2.83;;;12.20;97.20;;;;;;5048075;28;20512;-67
2022/01/20 13:06:11;;;;;;;13.63;2.80;;;11.10;98.00;;;;;;5036799;28;20133;-67
2022/01/20 13:08:40;;;;;;;11.32;2.97;;;10.30;99.90;;;;;;5044709;28;20049;-68
2022/01/20 13:11:09;;;;;;;10.10;2.00;;;9.50;99.90;;;;;;5047116;28;20049;-67
2022/01/20 13:13:35;;;;;;;9.30;1.90;;;8.50;99.90;;;;;;5062246;28;20045;-68
2022/01/20 13:16:15;;;;;;;7.43;1.88;;;7.80;99.90;;;;;;5047793;28;20052;-67
2022/01/20 13:18:51;;;;;;;4.30;1.60;;;7.20;99.90;;;;;;5046572;28;20434;-67
2022/01/20 13:21:18;;;;;;;6.35;1.73;;;6.90;99.90;;;;;;5049259;28;20144;-67
2022/01/20 13:23:56;;;;;;;4.70;1.50;;;6.60;99.90;;;;;;5067979;28;20037;-67
2022/01/20 13:26:23;;;;;;;7.40;1.98;;;6.70;99.90;;;;;;5067539;28;20399;-67
2022/01/20 13:29:05;;;;;;;8.07;2.28;;;7.20;99.90;;;;;;5067592;28;20131;-68
2022/01/20 13:31:32;;;;;;;8.85;2.55;;;7.40;99.90;;;;;;5056702;28;20124;-67
2022/01/20 13:34:09;;;;;;;4.75;1.85;;;7.50;99.90;;;;;;5053018;28;20068;-67
2022/01/20 13:36:36;;;;;;;11.10;2.17;;;7.50;99.90;;;;;;5039313;28;20060;-67
2022/01/20 13:39:03;;;;;;;12.95;2.67;;;7.30;99.90;;;;;;5048837;28;20052;-66
2022/01/20 13:41:29;;;;;;;10.00;2.45;;;7.00;99.90;;;;;;5049072;28;20037;-67
2022/01/20 13:46:47;;;;;;;11.57;2.17;;;6.60;99.90;;;;;;5053888;28;20111;-67
2022/01/20 13:49:17;;;;;;;12.70;2.72;;;6.70;99.90;;;;;;5049894;28;20146;-67
2022/01/20 13:51:44;;;;;;;11.65;2.78;;;6.70;99.90;;;;;;5048640;28;20072;-67
2022/01/20 13:54:09;;;;;;;10.55;2.88;;;6.70;99.90;;;;;;5047189;28;20467;-67
2022/01/20 13:56:35;;;;;;;14.15;3.08;;;6.60;99.90;;;;;;5047099;28;20053;-67